Time;durP1;ratioP1;P1;durP2;ratioP2;P2;SDS_P1;SDS_P2;PMS_P1;PMS_P2;Temp;Humidity;BMP_temperature;BMP_pressure;BME280_temperature;BME280_humidity;BME280_pressure;Samples;Min_cycle;Max_cycle;Signal;HPM_P1;HPM_P2
2023/04/09 00:00:57;;;;;;;;;;;;;;;16.73;47.18;102292.16;7256859;19;154455;-55
2023/04/09 00:03:23;;;;;;;;;;;;;;;16.73;47.41;102288.50;7255120;19;153085;-55
2023/04/09 00:05:51;;;;;;;;;;;;;;;16.74;47.26;102281.84;7255166;19;153331;-56
2023/04/09 00:08:18;;;;;;;;;;;;;;;16.73;47.10;102285.72;7258333;19;153267;-55
2023/04/09 00:10:44;;;;;;;;;;;;;;;16.73;47.31;102275.41;7257188;19;154735;-56
2023/04/09 00:13:11;;;;;;;;;;;;;;;16.74;47.25;102270.69;7265396;19;154386;-55
2023/04/09 00:15:38;;;;;;;;;;;;;;;16.71;47.18;102273.97;7250427;19;152853;-55
2023/04/09 00:18:07;;;;;;;;;;;;;;;16.70;47.08;102269.50;7251105;19;153194;-55
2023/04/09 00:20:34;;;;;;;;;;;;;;;16.73;47.18;102274.56;7255080;19;153036;-55
2023/04/09 00:23:01;;;;;;;;;;;;;;;16.71;47.10;102262.81;7259596;19;153274;-55
2023/04/09 00:25:28;;;;;;;;;;;;;;;16.69;47.52;102265.84;7253637;19;153795;-55
2023/04/09 00:27:55;;;;;;;;;;;;;;;16.70;47.28;102261.97;7255189;19;153640;-56
2023/04/09 00:30:24;;;;;;;;;;;;;;;16.70;47.56;102258.34;7255441;19;154349;-55
2023/04/09 00:32:51;;;;;;;;;;;;;;;16.70;47.57;102253.59;7254897;19;152855;-55
2023/04/09 00:35:18;;;;;;;;;;;;;;;16.71;47.42;102251.66;7258829;19;154523;-55
2023/04/09 00:37:45;;;;;;;;;;;;;;;16.73;47.26;102255.03;7256179;19;153978;-55
2023/04/09 00:40:12;;;;;;;;;;;;;;;16.69;47.35;102251.06;7255921;19;153789;-55
2023/04/09 00:42:39;;;;;;;;;;;;;;;16.67;47.53;102239.31;7257352;19;153001;-55
2023/04/09 00:45:06;;;;;;;;;;;;;;;16.67;47.71;102242.09;7255101;19;153688;-55
2023/04/09 00:47:34;;;;;;;;;;;;;;;16.68;47.59;102239.03;7252059;19;152834;-55
2023/04/09 00:50:02;;;;;;;;;;;;;;;16.68;47.28;102239.03;7255642;19;153602;-55
2023/04/09 00:52:29;;;;;;;;;;;;;;;16.68;47.47;102239.03;7258029;19;153265;-55
2023/04/09 00:54:58;;;;;;;;;;;;;;;16.68;47.46;102235.41;7253256;19;154349;-55
2023/04/09 00:57:24;;;;;;;;;;;;;;;16.67;47.57;102230.94;7261040;19;152788;-56
2023/04/09 00:59:51;;;;;;;;;;;;;;;16.66;47.43;102232.03;7258275;19;154407;-60
2023/04/09 01:02:18;;;;;;;;;;;;;;;16.66;47.55;102223.66;7255226;19;154148;-55
2023/04/09 01:04:45;;;;;;;;;;;;;;;16.66;47.24;102224.50;7252548;19;153703;-55
2023/04/09 01:07:16;;;;;;;;;;;;;;;16.68;47.55;102219.50;7253886;19;153430;-55
2023/04/09 01:09:47;;;;;;;;;;;;;;;16.67;47.33;102214.19;7255821;19;154131;-56
2023/04/09 01:12:21;;;;;;;;;;;;;;;16.67;47.51;102217.81;7255840;19;154444;-55
2023/04/09 01:14:51;;;;;;;;;;;;;;;16.66;47.60;102213.34;7253032;19;155104;-55
2023/04/09 01:17:23;;;;;;;;;;;;;;;16.67;47.50;102214.19;7249887;19;152680;-55
2023/04/09 01:19:52;;;;;;;;;;;;;;;16.64;47.36;102209.94;7255989;19;153069;-55
2023/04/09 01:22:22;;;;;;;;;;;;;;;16.66;47.38;102204.97;7253867;19;155067;-55
2023/04/09 01:24:59;;;;;;;;;;;;;;;16.65;47.75;102213.59;7255141;19;152912;-55
2023/04/09 01:27:33;;;;;;;;;;;;;;;16.65;47.48;102210.78;7250082;19;153087;-55
2023/04/09 01:30:03;;;;;;;;;;;;;;;16.65;47.70;102206.06;7254144;19;152100;-55
2023/04/09 01:32:32;;;;;;;;;;;;;;;16.66;47.35;102209.72;7251894;19;153816;-55
2023/04/09 01:35:00;;;;;;;;;;;;;;;16.65;47.39;102208.84;7253952;19;153859;-56
2023/04/09 01:37:27;;;;;;;;;;;;;;;16.68;47.29;102201.91;7249495;19;152864;-55
2023/04/09 01:39:54;;;;;;;;;;;;;;;16.66;47.56;102199.41;7254563;19;153911;-55
2023/04/09 01:42:21;;;;;;;;;;;;;;;16.66;47.32;102199.41;7260811;19;154332;-55
2023/04/09 01:44:49;;;;;;;;;;;;;;;16.67;47.61;102203.84;7252035;19;153544;-55
2023/04/09 01:47:16;;;;;;;;;;;;;;;16.65;47.45;102206.06;7249926;19;154206;-54
2023/04/09 01:49:43;;;;;;;;;;;;;;;16.65;47.84;102199.63;7251109;19;153780;-54
2023/04/09 01:52:14;;;;;;;;;;;;;;;16.66;47.55;102204.13;7256274;19;153173;-58
2023/04/09 01:54:41;;;;;;;;;;;;;;;16.64;47.48;102197.94;7254689;19;153657;-55
2023/04/09 01:57:09;;;;;;;;;;;;;;;16.63;47.82;102199.88;7251066;19;153790;-55
2023/04/09 01:59:36;;;;;;;;;;;;;;;16.63;47.48;102199.03;7250908;19;152979;-55
2023/04/09 02:02:07;;;;;;;;;;;;;;;16.63;47.50;102194.28;7253130;19;153817;-55
2023/04/09 02:04:36;;;;;;;;;;;;;;;16.59;47.97;102190.31;7256379;19;153358;-55
2023/04/09 02:07:03;;;;;;;;;;;;;;;16.62;47.58;102189.84;7252006;19;153678;-55
2023/04/09 02:09:30;;;;;;;;;;;;;;;16.60;47.97;102188.38;7253371;19;153851;-55
2023/04/09 02:12:00;;;;;;;;;;;;;;;16.63;47.66;102185.06;7254460;19;153673;-55
2023/04/09 02:14:28;;;;;;;;;;;;;;;16.61;47.65;102185.34;7253784;19;153730;-55
2023/04/09 02:16:55;;;;;;;;;;;;;;;16.61;47.86;102190.94;7251072;19;153737;-55
2023/04/09 02:19:22;;;;;;;;;;;;;;;16.58;48.00;102185.00;7249373;19;153420;-55
2023/04/09 02:21:49;;;;;;;;;;;;;;;16.58;47.63;102185.00;7252441;19;154000;-55
2023/04/09 02:24:16;;;;;;;;;;;;;;;16.59;47.72;102192.25;7260074;19;154081;-55
2023/04/09 02:26:43;;;;;;;;;;;;;;;16.57;47.74;102186.06;7250678;19;154076;-55
2023/04/09 02:29:10;;;;;;;;;;;;;;;16.59;47.94;102183.88;7251800;19;154504;-55
2023/04/09 02:31:37;;;;;;;;;;;;;;;16.61;47.77;102184.50;7253408;19;152865;-55
2023/04/09 02:34:04;;;;;;;;;;;;;;;16.56;47.78;102184.38;7251656;19;155037;-54
2023/04/09 02:36:31;;;;;;;;;;;;;;;16.56;47.63;102176.00;7250322;19;154438;-55
2023/04/09 02:38:58;;;;;;;;;;;;;;;16.56;47.98;102182.44;7253812;19;153217;-55
2023/04/09 02:41:27;;;;;;;;;;;;;;;16.58;47.83;102174.66;7254962;19;153374;-54
2023/04/09 02:43:54;;;;;;;;;;;;;;;16.59;47.94;102170.78;7250092;19;154039;-55
2023/04/09 02:46:21;;;;;;;;;;;;;;;16.61;47.79;102170.56;7257338;19;153468;-55
2023/04/09 02:48:48;;;;;;;;;;;;;;;16.55;47.91;102165.94;7250488;19;154148;-55
2023/04/09 02:51:15;;;;;;;;;;;;;;;16.60;47.65;102171.63;7253727;19;153411;-55
2023/04/09 02:53:44;;;;;;;;;;;;;;;16.58;47.84;102168.28;7254131;19;154193;-55
2023/04/09 02:56:11;;;;;;;;;;;;;;;16.60;47.85;102171.63;7249735;19;154062;-55
2023/04/09 02:58:38;;;;;;;;;;;;;;;16.57;47.83;102166.53;7256608;19;155058;-55
2023/04/09 03:01:05;;;;;;;;;;;;;;;16.58;47.91;102165.47;7251388;19;152638;-55
2023/04/09 03:03:32;;;;;;;;;;;;;;;16.55;47.65;102161.19;7250162;19;154222;-55
2023/04/09 03:05:59;;;;;;;;;;;;;;;16.56;47.87;102167.63;7250641;19;153940;-55
2023/04/09 03:08:26;;;;;;;;;;;;;;;16.55;47.89;102171.50;7260341;19;153049;-55
2023/04/09 03:10:53;;;;;;;;;;;;;;;16.57;47.59;102166.53;7251263;19;152589;-55
2023/04/09 03:13:20;;;;;;;;;;;;;;;16.55;47.87;102165.94;7253086;19;152909;-55
2023/04/09 03:15:50;;;;;;;;;;;;;;;16.55;47.54;102164.00;7249367;19;154685;-55
2023/04/09 03:18:17;;;;;;;;;;;;;;;16.55;47.87;102154.78;7247413;19;152141;-55
2023/04/09 03:20:44;;;;;;;;;;;;;;;16.53;48.06;102160.63;7247753;19;154334;-55
2023/04/09 03:23:11;;;;;;;;;;;;;;;16.57;48.04;102152.59;7247378;19;155552;-55
2023/04/09 03:25:38;;;;;;;;;;;;;;;16.55;48.07;102154.78;7250850;19;153850;-55
2023/04/09 03:28:05;;;;;;;;;;;;;;;16.53;47.70;102155.03;7250107;19;154643;-55
2023/04/09 03:30:32;;;;;;;;;;;;;;;16.54;47.58;102147.50;7258632;19;152980;-55
2023/04/09 03:32:59;;;;;;;;;;;;;;;16.53;47.81;102148.63;7247561;19;154053;-55
2023/04/09 03:35:26;;;;;;;;;;;;;;;16.55;47.91;102138.88;7247823;19;154471;-55
2023/04/09 03:37:53;;;;;;;;;;;;;;;16.54;47.67;102147.50;7249226;19;153223;-55
2023/04/09 03:40:20;;;;;;;;;;;;;;;16.54;47.91;102148.34;7251339;19;154766;-55
2023/04/09 03:42:47;;;;;;;;;;;;;;;16.56;47.83;102150.91;7252015;19;153482;-56
2023/04/09 03:45:14;;;;;;;;;;;;;;;16.53;47.92;102146.69;7251525;19;153225;-55
2023/04/09 03:47:41;;;;;;;;;;;;;;;16.51;47.97;102148.00;7247540;19;153582;-56
2023/04/09 03:50:08;;;;;;;;;;;;;;;16.49;47.75;102142.69;7248476;19;155586;-55
2023/04/09 03:52:35;;;;;;;;;;;;;;;16.49;47.80;102141.84;7260518;19;153153;-55
2023/04/09 03:55:02;;;;;;;;;;;;;;;16.51;47.80;102140.50;7250621;19;155681;-55
2023/04/09 03:57:30;;;;;;;;;;;;;;;16.53;47.75;102135.53;7251647;19;154339;-56
2023/04/09 03:59:57;;;;;;;;;;;;;;;16.50;47.91;102144.38;7255446;19;153072;-55
2023/04/09 04:02:25;;;;;;;;;;;;;;;16.51;47.91;102140.50;7257913;19;154556;-55
2023/04/09 04:04:53;;;;;;;;;;;;;;;16.53;48.02;102140.25;7256556;19;152837;-55
2023/04/09 04:07:20;;;;;;;;;;;;;;;16.51;47.76;102139.66;7256115;19;154744;-55
2023/04/09 04:09:46;;;;;;;;;;;;;;;16.52;47.72;102141.34;7256516;19;153605;-55
2023/04/09 04:12:13;;;;;;;;;;;;;;;16.51;47.93;102145.22;7267440;19;153288;-55
2023/04/09 04:14:40;;;;;;;;;;;;;;;16.50;47.71;102140.72;7254042;19;152668;-55
2023/04/09 04:17:07;;;;;;;;;;;;;;;16.50;47.64;102136.00;7253876;19;153448;-55
2023/04/09 04:19:34;;;;;;;;;;;;;;;16.51;47.79;102139.66;7256314;19;153742;-55
2023/04/09 04:22:01;;;;;;;;;;;;;;;16.51;47.87;102136.84;7253100;19;153962;-55
2023/04/09 04:24:28;;;;;;;;;;;;;;;16.50;48.08;102135.16;7254198;19;154299;-55
2023/04/09 04:26:55;;;;;;;;;;;;;;;16.47;47.93;102136.53;7255750;19;153372;-55
2023/04/09 04:29:22;;;;;;;;;;;;;;;16.46;47.75;102138.47;7255329;19;153943;-55
2023/04/09 04:31:49;;;;;;;;;;;;;;;16.45;47.92;102139.56;7257973;19;153485;-55
2023/04/09 04:34:16;;;;;;;;;;;;;;;16.49;48.09;102128.72;7262940;19;154300;-55
2023/04/09 04:36:43;;;;;;;;;;;;;;;16.50;47.87;102140.72;7254457;19;153251;-55
2023/04/09 04:39:10;;;;;;;;;;;;;;;16.49;48.02;102136.28;7258681;19;155035;-55
2023/04/09 04:41:37;;;;;;;;;;;;;;;16.52;47.99;102136.63;7253664;19;156008;-54
2023/04/09 04:44:04;;;;;;;;;;;;;;;16.47;47.95;102136.53;7256600;19;153059;-55
2023/04/09 04:46:30;;;;;;;;;;;;;;;16.48;47.97;102132.63;7252443;19;153299;-55
2023/04/09 04:48:57;;;;;;;;;;;;;;;16.50;47.73;102130.41;7251091;19;154453;-55
2023/04/09 04:51:26;;;;;;;;;;;;;;;16.49;47.80;102131.50;7257888;19;153442;-55
2023/04/09 04:53:53;;;;;;;;;;;;;;;16.48;47.82;102137.38;7257238;19;154292;-55
2023/04/09 04:56:20;;;;;;;;;;;;;;;16.49;47.85;102128.72;7259506;19;154013;-55
2023/04/09 04:58:47;;;;;;;;;;;;;;;16.47;48.08;102133.72;7255724;19;153648;-55
2023/04/09 05:01:14;;;;;;;;;;;;;;;16.45;47.93;102128.38;7253634;19;154373;-55
2023/04/09 05:03:41;;;;;;;;;;;;;;;16.46;47.78;102123.66;7255179;19;152299;-55
2023/04/09 05:06:08;;;;;;;;;;;;;;;16.48;47.83;102126.22;7252072;19;153930;-55
2023/04/09 05:08:36;;;;;;;;;;;;;;;16.47;47.99;102119.78;7251741;19;153690;-55
2023/04/09 05:11:03;;;;;;;;;;;;;;;16.47;47.68;102119.78;7254095;19;152836;-55
2023/04/09 05:13:30;;;;;;;;;;;;;;;16.46;47.98;102120.88;7257223;19;153627;-54
2023/04/09 05:15:57;;;;;;;;;;;;;;;16.47;47.90;102117.00;7252390;19;153641;-55
2023/04/09 05:18:24;;;;;;;;;;;;;;;16.42;48.05;102112.16;7262693;19;153541;-55
2023/04/09 05:20:51;;;;;;;;;;;;;;;16.42;47.87;102117.75;7253386;19;154595;-55
2023/04/09 05:23:18;;;;;;;;;;;;;;;16.43;47.70;102118.59;7254195;19;154305;-55
2023/04/09 05:25:44;;;;;;;;;;;;;;;16.41;47.81;102113.25;7252676;19;152838;-55
2023/04/09 05:28:12;;;;;;;;;;;;;;;16.44;47.84;102109.13;7255021;19;154613;-55
2023/04/09 05:30:39;;;;;;;;;;;;;;;16.42;47.92;102112.16;7249908;19;154522;-56
2023/04/09 05:33:06;;;;;;;;;;;;;;;16.43;47.82;102107.44;7254379;19;153016;-55
2023/04/09 05:35:33;;;;;;;;;;;;;;;16.41;48.05;102110.47;7248624;19;154667;-55
2023/04/09 05:38:00;;;;;;;;;;;;;;;16.43;47.98;102107.44;7252973;19;152786;-56
2023/04/09 05:40:27;;;;;;;;;;;;;;;16.41;48.20;102110.47;7263160;19;153443;-54
2023/04/09 05:42:54;;;;;;;;;;;;;;;16.40;47.98;102108.78;7255632;19;152972;-55
2023/04/09 05:45:21;;;;;;;;;;;;;;;16.41;47.83;102109.63;7251874;19;153981;-55
2023/04/09 05:47:48;;;;;;;;;;;;;;;16.38;48.21;102113.78;7250894;19;154746;-55
2023/04/09 05:50:15;;;;;;;;;;;;;;;16.41;47.92;102110.47;7253936;19;154036;-55
2023/04/09 05:52:42;;;;;;;;;;;;;;;16.39;48.09;102107.09;7258812;19;155265;-56
2023/04/09 05:55:09;;;;;;;;;;;;;;;16.39;47.92;102115.47;7251899;19;153337;-56
2023/04/09 05:57:36;;;;;;;;;;;;;;;16.41;48.12;102112.41;7253418;19;154384;-56
2023/04/09 06:00:03;;;;;;;;;;;;;;;16.39;47.96;102114.63;7252908;19;153031;-55
2023/04/09 06:02:30;;;;;;;;;;;;;;;16.40;48.21;102114.34;7258677;19;154402;-56
2023/04/09 06:04:57;;;;;;;;;;;;;;;16.41;47.74;102116.06;7251262;19;152221;-56
2023/04/09 06:07:25;;;;;;;;;;;;;;;16.38;48.07;102107.34;7249980;19;154134;-56
2023/04/09 06:09:52;;;;;;;;;;;;;;;16.34;48.01;102112.59;7252803;19;155717;-56
2023/04/09 06:12:19;;;;;;;;;;;;;;;16.35;47.96;102108.69;7253707;19;154060;-56
2023/04/09 06:14:47;;;;;;;;;;;;;;;16.36;47.94;102121.53;7254049;19;154193;-56
2023/04/09 06:17:14;;;;;;;;;;;;;;;16.36;48.16;102115.97;7250277;19;153640;-56
2023/04/09 06:19:41;;;;;;;;;;;;;;;16.40;48.20;102119.09;7254354;19;153957;-57
2023/04/09 06:22:09;;;;;;;;;;;;;;;16.37;48.09;102119.59;7259030;19;153471;-56
2023/04/09 06:24:37;;;;;;;;;;;;;;;16.36;48.15;102117.91;7248665;19;154487;-57
2023/04/09 06:27:04;;;;;;;;;;;;;;;16.37;47.91;102120.44;7250186;19;153278;-56
2023/04/09 06:29:31;;;;;;;;;;;;;;;16.36;48.16;102113.16;7256115;19;153416;-56
2023/04/09 06:31:58;;;;;;;;;;;;;;;16.37;47.88;102100.94;7255828;19;153962;-56
2023/04/09 06:34:25;;;;;;;;;;;;;;;16.38;48.08;102104.56;7248219;19;154005;-56
2023/04/09 06:36:52;;;;;;;;;;;;;;;16.37;48.11;102111.22;7252667;19;152736;-56
2023/04/09 06:39:19;;;;;;;;;;;;;;;16.37;48.14;102105.66;7254615;19;153747;-55
2023/04/09 06:41:46;;;;;;;;;;;;;;;16.34;48.23;102092.22;7254770;19;153536;-56
2023/04/09 06:44:14;;;;;;;;;;;;;;;16.37;48.16;102098.13;7261457;19;153251;-56
2023/04/09 06:46:41;;;;;;;;;;;;;;;16.37;48.16;102098.13;7251402;19;153771;-56
2023/04/09 06:49:08;;;;;;;;;;;;;;;16.40;48.15;102097.63;7251267;19;153207;-56
2023/04/09 06:51:35;;;;;;;;;;;;;;;16.36;47.88;102090.00;7257104;19;154724;-56
2023/04/09 06:54:02;;;;;;;;;;;;;;;16.39;48.11;102095.94;7252244;19;152899;-56
2023/04/09 06:56:29;;;;;;;;;;;;;;;16.37;47.92;102086.13;7247741;19;153907;-56
2023/04/09 06:58:56;;;;;;;;;;;;;;;16.36;47.99;102085.28;7252439;19;154077;-56
2023/04/09 07:01:24;;;;;;;;;;;;;;;16.36;48.02;102088.06;7252581;19;152897;-56
2023/04/09 07:03:51;;;;;;;;;;;;;;;16.40;47.91;102080.88;7248217;19;153166;-56
2023/04/09 07:06:18;;;;;;;;;;;;;;;16.41;48.02;102093.75;7252555;19;153710;-56
2023/04/09 07:08:46;;;;;;;;;;;;;;;16.39;48.21;102089.53;7250904;19;152791;-56
2023/04/09 07:11:15;;;;;;;;;;;;;;;16.37;48.16;102083.34;7254857;19;153827;-56
2023/04/09 07:13:42;;;;;;;;;;;;;;;16.38;48.13;102087.81;7252676;19;155800;-56
2023/04/09 07:16:09;;;;;;;;;;;;;;;16.34;48.28;102081.91;7245628;19;153834;-56
2023/04/09 07:18:36;;;;;;;;;;;;;;;16.35;48.11;102085.56;7247010;19;153759;-56
2023/04/09 07:21:04;;;;;;;;;;;;;;;16.35;48.09;102091.13;7250926;19;153752;-54
2023/04/09 07:23:35;;;;;;;;;;;;;;;16.37;48.20;102086.97;7253510;19;154151;-55
2023/04/09 07:26:03;;;;;;;;;;;;;;;16.36;48.29;102074.13;7247834;19;155362;-55
2023/04/09 07:28:30;;;;;;;;;;;;;;;16.39;48.25;102058.84;7258960;19;154311;-55
2023/04/09 07:31:00;;;;;;;;;;;;;;;16.39;48.25;102058.84;7251871;19;155023;-55
2023/04/09 07:33:27;;;;;;;;;;;;;;;16.40;48.27;102049.34;7248899;19;153253;-55
2023/04/09 07:35:54;;;;;;;;;;;;;;;16.39;47.90;102062.47;7257176;19;154213;-56
2023/04/09 07:38:22;;;;;;;;;;;;;;;16.41;48.13;102076.16;7258275;19;153817;-55
2023/04/09 07:40:49;;;;;;;;;;;;;;;16.43;47.83;102080.41;7253098;19;154860;-55
2023/04/09 07:43:16;;;;;;;;;;;;;;;16.42;48.27;102078.69;7259068;19;153225;-55
2023/04/09 07:45:47;;;;;;;;;;;;;;;16.40;47.93;102077.25;7256552;19;153883;-55
2023/04/09 07:48:14;;;;;;;;;;;;;;;16.42;48.07;102084.28;7256639;19;155443;-55
2023/04/09 07:50:42;;;;;;;;;;;;;;;16.41;48.19;102079.78;7269247;19;153240;-56
2023/04/09 07:53:09;;;;;;;;;;;;;;;16.42;48.01;102075.91;7257502;19;154029;-55
2023/04/09 07:55:36;;;;;;;;;;;;;;;16.42;48.13;102080.66;7255183;19;153525;-55
2023/04/09 07:58:04;;;;;;;;;;;;;;;16.46;47.93;102076.25;7256794;19;154850;-55
2023/04/09 08:00:31;;;;;;;;;;;;;;;16.42;48.14;102072.28;7259413;19;153722;-55
2023/04/09 08:02:58;;;;;;;;;;;;;;;16.40;48.25;102085.63;7258254;19;152951;-55
2023/04/09 08:05:26;;;;;;;;;;;;;;;16.42;48.23;102089.84;7254730;19;154559;-55
2023/04/09 08:07:53;;;;;;;;;;;;;;;16.41;48.23;102098.47;7254915;19;153964;-55
2023/04/09 08:10:20;;;;;;;;;;;;;;;16.42;48.01;102100.16;7258953;19;154129;-55
2023/04/09 08:12:47;;;;;;;;;;;;;;;16.44;48.09;102100.78;7264914;19;154517;-56
2023/04/09 08:15:15;;;;;;;;;;;;;;;16.43;47.84;102090.72;7255035;19;152597;-56
2023/04/09 08:17:42;;;;;;;;;;;;;;;16.42;47.96;102089.00;7254037;19;154133;-56
2023/04/09 08:20:09;;;;;;;;;;;;;;;16.43;48.01;102083.19;7256064;19;153650;-56
2023/04/09 08:22:36;;;;;;;;;;;;;;;16.45;48.11;102082.91;7255121;19;152072;-56
2023/04/09 08:25:04;;;;;;;;;;;;;;;16.43;48.00;102085.13;7254709;19;153354;-56
2023/04/09 08:27:32;;;;;;;;;;;;;;;16.44;48.09;102084.84;7249170;19;153287;-56
2023/04/09 08:29:59;;;;;;;;;;;;;;;16.42;47.80;102089.00;7260490;19;152354;-56
2023/04/09 08:32:26;;;;;;;;;;;;;;;16.42;48.11;102089.84;7262045;19;154741;-56
2023/04/09 08:34:53;;;;;;;;;;;;;;;16.44;47.92;102084.03;7258113;19;153928;-56
2023/04/09 08:37:20;;;;;;;;;;;;;;;16.44;47.76;102084.84;7258871;19;153135;-56
2023/04/09 08:39:47;;;;;;;;;;;;;;;16.45;47.75;102086.56;7257500;19;153708;-56
2023/04/09 08:42:15;;;;;;;;;;;;;;;16.42;48.25;102092.66;7255018;19;153693;-56
2023/04/09 08:44:42;;;;;;;;;;;;;;;16.42;47.87;102086.22;7253191;19;153713;-56
2023/04/09 08:47:10;;;;;;;;;;;;;;;16.44;48.02;102073.69;7251957;19;154910;-55
2023/04/09 08:49:39;;;;;;;;;;;;;;;16.44;48.07;102070.91;7255495;19;153133;-56
2023/04/09 08:52:07;;;;;;;;;;;;;;;16.46;47.92;102065.09;7254567;19;154149;-56
2023/04/09 08:54:34;;;;;;;;;;;;;;;16.48;48.15;102070.41;7263698;19;155647;-56
2023/04/09 08:57:04;;;;;;;;;;;;;;;16.45;47.83;102069.81;7256191;19;153783;-56
2023/04/09 08:59:35;;;;;;;;;;;;;;;16.43;47.88;102076.75;7257393;19;156582;-56
2023/04/09 09:02:05;;;;;;;;;;;;;;;16.46;48.04;102065.09;7257512;19;153052;-56
2023/04/09 09:04:42;;;;;;;;;;;;;;;16.46;48.13;102074.31;7253442;19;153400;-56
2023/04/09 09:07:09;;;;;;;;;;;;;;;16.47;47.96;102077.94;7248904;19;152752;-56
2023/04/09 09:09:49;;;;;;;;;;;;;;;16.48;48.09;102078.78;7255106;19;154601;-56
2023/04/09 09:12:19;;;;;;;;;;;;;;;16.50;48.00;102069.06;7256061;19;153775;-56
2023/04/09 09:14:46;;;;;;;;;;;;;;;16.49;48.07;102066.53;7253779;19;154769;-56
2023/04/09 09:17:13;;;;;;;;;;;;;;;16.52;47.81;102061.28;7259535;19;153764;-56
2023/04/09 09:19:41;;;;;;;;;;;;;;;16.51;48.13;102065.19;7255254;19;153977;-56
2023/04/09 09:22:09;;;;;;;;;;;;;;;16.52;48.19;102071.59;7257284;19;153482;-56
2023/04/09 09:24:47;;;;;;;;;;;;;;;16.50;48.08;102063.47;7256414;19;153873;-56
2023/04/09 09:27:19;;;;;;;;;;;;;;;16.54;47.92;102070.22;7250065;19;153864;-56
2023/04/09 09:29:46;;;;;;;;;;;;;;;16.55;47.92;102080.31;7255936;19;154547;-56
2023/04/09 09:32:22;;;;;;;;;;;;;;;16.53;47.88;102078.88;7254845;19;153165;-56
2023/04/09 09:34:57;;;;;;;;;;;;;;;16.56;48.20;102070.00;7254115;19;154270;-56
2023/04/09 09:37:30;;;;;;;;;;;;;;;16.57;47.88;102072.53;7254749;19;152847;-56
2023/04/09 09:40:04;;;;;;;;;;;;;;;16.58;48.25;102067.84;7261892;19;152672;-56
2023/04/09 09:42:56;;;;;;;;;;;;;;;16.58;47.74;102060.28;7256021;19;153371;-55
2023/04/09 09:45:31;;;;;;;;;;;;;;;16.62;47.86;102052.28;7250972;19;153904;-55
2023/04/09 09:47:59;;;;;;;;;;;;;;;16.66;47.79;102047.88;7251148;19;155099;-55
2023/04/09 09:50:31;;;;;;;;;;;;;;;16.66;47.77;102048.72;7254515;19;154259;-55
2023/04/09 09:53:04;;;;;;;;;;;;;;;16.67;47.91;102044.81;7252758;19;153374;-55
2023/04/09 09:55:36;;;;;;;;;;;;;;;16.69;47.85;102041.78;7248794;19;155377;-55
2023/04/09 09:58:07;;;;;;;;;;;;;;;16.70;47.82;102041.53;7247776;19;153452;-56
2023/04/09 10:00:40;;;;;;;;;;;;;;;16.70;47.76;102047.09;7256940;19;152682;-56
2023/04/09 10:03:14;;;;;;;;;;;;;;;16.75;47.53;102060.28;7259173;19;153204;-56
2023/04/09 10:08:44;;;;;;;;;;;;;;;16.80;47.76;102052.84;7253998;19;152887;-55
2023/04/09 10:11:12;;;;;;;;;;;;;;;16.79;47.77;102044.72;7255328;19;152687;-55
2023/04/09 10:13:42;;;;;;;;;;;;;;;16.78;47.70;102024.34;7255403;19;153103;-56
2023/04/09 10:16:10;;;;;;;;;;;;;;;16.82;47.56;102022.72;7251679;19;153621;-55
2023/04/09 10:18:46;;;;;;;;;;;;;;;16.87;47.25;102027.53;7251359;19;153480;-56
2023/04/09 10:21:52;;;;;;;;;;;;;;;16.92;47.55;102026.75;7252182;19;153191;-56
2023/04/09 10:24:27;;;;;;;;;;;;;;;16.93;47.44;102028.44;7251177;19;152984;-55
2023/04/09 10:27:07;;;;;;;;;;;;;;;16.98;47.05;102020.16;7262840;19;152994;-56
2023/04/09 10:29:41;;;;;;;;;;;;;;;17.01;46.81;102014.88;7252061;19;153229;-56
2023/04/09 10:32:27;;;;;;;;;;;;;;;17.07;46.83;102019.44;7252567;19;152991;-56
2023/04/09 10:34:59;;;;;;;;;;;;;;;17.11;46.83;102014.19;7251580;19;153227;-56
2023/04/09 10:37:34;;;;;;;;;;;;;;;17.11;46.66;102003.00;7250399;19;152496;-56
2023/04/09 10:40:31;;;;;;;;;;;;;;;17.13;46.91;101995.19;7254001;19;153659;-56
2023/04/09 10:42:59;;;;;;;;;;;;;;;17.15;46.91;101991.06;7251915;19;152764;-56
2023/04/09 10:45:38;;;;;;;;;;;;;;;17.22;46.78;101996.44;7250393;19;152825;-56
2023/04/09 10:48:12;;;;;;;;;;;;;;;17.22;46.92;101991.69;7255471;19;153268;-56
2023/04/09 10:50:43;;;;;;;;;;;;;;;17.26;46.64;101984.47;7253605;19;154597;-56
2023/04/09 10:53:19;;;;;;;;;;;;;;;17.29;46.39;101983.97;7252318;19;153435;-56
2023/04/09 10:55:49;;;;;;;;;;;;;;;17.33;46.23;101981.50;7251631;19;153229;-56
2023/04/09 10:58:23;;;;;;;;;;;;;;;17.35;46.13;101979.31;7246121;19;152906;-56
2023/04/09 11:01:01;;;;;;;;;;;;;;;17.37;46.19;101973.44;7253946;19;154105;-56
2023/04/09 11:03:45;;;;;;;;;;;;;;;17.40;46.22;101967.34;7252504;19;153423;-56
2023/04/09 11:06:36;;;;;;;;;;;;;;;17.43;46.40;101978.84;7246669;19;154442;-55
2023/04/09 11:09:07;;;;;;;;;;;;;;;17.46;46.20;101971.84;7261692;19;153036;-56
2023/04/09 11:11:36;;;;;;;;;;;;;;;17.48;46.24;101975.25;7275171;19;154322;-56
2023/04/09 11:14:24;;;;;;;;;;;;;;;17.52;46.20;101963.28;7266705;19;152401;-57
2023/04/09 11:17:08;;;;;;;;;;;;;;;17.53;46.09;101962.19;7263873;19;155427;-56
2023/04/09 11:19:43;;;;;;;;;;;;;;;17.57;45.90;101956.91;7261566;19;152886;-56
2023/04/09 11:22:11;;;;;;;;;;;;;;;17.58;45.95;101955.81;7267281;19;154670;-56
2023/04/09 11:24:39;;;;;;;;;;;;;;;17.62;45.90;101955.03;7263383;19;154482;-56
2023/04/09 11:27:10;;;;;;;;;;;;;;;17.65;45.72;101948.91;7261038;19;154045;-56
2023/04/09 11:29:39;;;;;;;;;;;;;;;17.61;45.95;101947.75;7263758;19;153198;-60
2023/04/09 11:32:20;;;;;;;;;;;;;;;17.67;45.58;101935.50;7265982;19;153505;-56
2023/04/09 11:35:02;;;;;;;;;;;;;;;17.69;45.64;101933.31;7266814;19;153380;-56
2023/04/09 11:37:29;;;;;;;;;;;;;;;17.72;45.57;101926.31;7256904;19;155184;-57
2023/04/09 11:39:57;;;;;;;;;;;;;;;17.71;45.68;101924.66;7263868;19;154501;-56
2023/04/09 11:42:25;;;;;;;;;;;;;;;17.71;45.91;101919.06;7267143;19;152669;-56
2023/04/09 11:44:52;;;;;;;;;;;;;;;17.75;45.91;101917.44;7262286;19;153466;-56
2023/04/09 11:47:20;;;;;;;;;;;;;;;17.72;45.74;101920.72;7258605;19;154299;-56
2023/04/09 11:49:47;;;;;;;;;;;;;;;17.74;45.49;101915.72;7266401;19;153353;-56
2023/04/09 11:52:15;;;;;;;;;;;;;;;17.73;45.49;101920.47;7264396;19;154350;-56
2023/04/09 11:54:47;;;;;;;;;;;;;;;17.75;45.86;101914.63;7261815;19;153508;-56
2023/04/09 11:57:14;;;;;;;;;;;;;;;17.78;45.70;101902.91;7269488;19;154744;-55
2023/04/09 11:59:45;;;;;;;;;;;;;;;17.80;45.53;101906.28;7261928;19;154065;-56
2023/04/09 12:02:16;;;;;;;;;;;;;;;17.79;45.41;101899.00;7262155;19;152414;-56
2023/04/09 12:04:49;;;;;;;;;;;;;;;17.81;45.41;101904.34;7257944;19;154127;-56
2023/04/09 12:07:16;;;;;;;;;;;;;;;17.82;45.47;101892.03;7261343;19;154629;-56
2023/04/09 12:09:46;;;;;;;;;;;;;;;17.83;45.57;101888.13;7265522;19;152471;-56
2023/04/09 12:12:17;;;;;;;;;;;;;;;17.83;45.62;101891.78;7263386;19;153402;-56
2023/04/09 12:14:45;;;;;;;;;;;;;;;17.85;45.35;101881.19;7261128;19;153939;-56
2023/04/09 12:17:12;;;;;;;;;;;;;;;17.87;45.52;101880.91;7260834;19;153778;-57
2023/04/09 12:19:39;;;;;;;;;;;;;;;17.86;45.30;101870.81;7267525;19;153877;-56
2023/04/09 12:22:06;;;;;;;;;;;;;;;17.86;45.22;101865.22;7258267;19;153583;-56
2023/04/09 12:24:33;;;;;;;;;;;;;;;17.86;45.13;101866.06;7255897;19;152887;-55
2023/04/09 12:27:00;;;;;;;;;;;;;;;17.88;45.43;101871.41;7257217;19;154589;-55
2023/04/09 12:29:28;;;;;;;;;;;;;;;17.88;45.25;101871.41;7259395;19;154387;-55
2023/04/09 12:31:55;;;;;;;;;;;;;;;17.89;45.35;101873.09;7255808;19;154315;-56
2023/04/09 12:34:22;;;;;;;;;;;;;;;17.92;45.38;101873.41;7252846;19;153464;-55
2023/04/09 12:36:51;;;;;;;;;;;;;;;17.93;45.13;101865.84;7257645;19;152936;-56
2023/04/09 12:39:19;;;;;;;;;;;;;;;17.90;45.05;101864.41;7255998;19;155011;-55